Airfield :
LOGIN :

Register | Disclaimer

   EN    FR    IT 

 










Legend :    VFR   Marginal VFR   IFR   Intensive IFR   Very Intensive IFR
Visi :
Ceiling :
>= 8 km
>= 3000ft
5 to 8 km
1000 to 3000 ft
1500m to 5 km
500 to 1000 ft
800 to 1500m
200 to 500 ft
< 800m
< 200 ft
Symbols :   Thunderstorms  Fog  Heavy snow  Heavy precipitations  Wind > 20 kt
SIGMETs :     Misc.  Thunderstorms  Icing  Turbulence  Mountain Waves  Volcanic Ashes







- Airport Elevation : 17 ft
- IATA code : MPL
- Download approach charts


LFMT - Montpellier Méditerranée

CURRENT METAR :
  • 222330Z AUTO 03004KT 9000 OVC008 24/22 Q1018 TEMPO 1200 BR OVC003

EXPIRED METARs :
  • 222300Z AUTO 03003KT 9000 OVC008 24/22 Q1018 TEMPO 1200 BR OVC003
  • 222230Z AUTO VRB03KT 9999 OVC007 24/22 Q1018 TEMPO 1200 BR OVC003
  • 222200Z AUTO 11003KT 9999 BKN007 24/22 Q1018 TEMPO 1200 BR OVC003
  • 222130Z AUTO 13003KT 090V160 9999 OVC007 24/22 Q1017 TEMPO 1200 BR OVC003
  • 222100Z AUTO VRB02KT 9999 OVC006 24/22 Q1018 TEMPO 1200 BR OVC003

TAF TAF LFMT
Valid from the 22 at 21:00 until the 23 at 21:00 UTC


222000Z 2221/2321 VRB04KT 9999 BKN006
TEMPO 2222/2307 1200 BR OVC003
BECMG 2309/2311 18010KT CAVOK
TEMPO 2313/2315 SCT030TCU
ATIS : +33 4 67 13 11 70
No reported NOTAMs for that airfield.



MET'MAP, your aeronautical weather chart ! - Copyright ORBIFLY December 2007 - Disclaimer

ORBIFLY MET'MAP TEAM :

Programming & Development : Alexandra Zaïnal
Concept & Development : Baudouin d'Aumeries
Co-Development & Prog : Marc-Olivier Méhu
Technical & hardware support : Manuel Goepfert

Contact : metmap@orbifly.com




SOURCES & CREDITS :

   NOAA